• Join FlightAware (Why Join?)
  • Login
  • US Flag 
02:28PM EDT


 

Airport Tracker/Info


-or-


 

Live Flight TrackerFlight Track Log ✈ KNZ610 ✈ 18-Jul-2013 ✈ KPAH - KSHV

Flight Track Log - Related Links

Times and Time Zones

All times are in EDT time to prevent confusion due to time zone crossing. See the KNZ610 flight status page for this flight to view local times or setup timezone preferences in your user account.

Time Position Orientation Groundspeed Altitude Reporting Facility
EDT Latitude Longitude Course Direction KTS MPH feet Rate Location/Type
09:38PM 37.0467 -88.7558 208° Southwest 264 304 1,300  Level Memphis Center
09:39PM 37.0133 -88.7722 201° Southwest 167 192 2,100 1,020 Climbing Memphis Center
09:40PM 36.9742 -88.7964 206° Southwest 155 178 3,400 1,200 Climbing Memphis Center
09:41PM 36.9306 -88.8206 204° Southwest 168 193 4,600 1,200 Climbing Memphis Center
09:42PM 36.6961 -88.9757 206° Southwest  Level FlightAware Approximate
09:42PM 36.8894 -88.8525 212° Southwest 173 199 5,800  Level Memphis Center
09:43PM 36.6379 -89.0136 208° Southwest  Level FlightAware Approximate
09:43PM 36.8439 -88.8792 205° Southwest 178 205 6,900  Level Memphis Center
09:44PM 36.8003 -88.9058 206° Southwest 178 205 8,000 1,140 Climbing Memphis Center
09:45PM 36.7569 -88.9325 206° Southwest 178 205 9,200 1,140 Climbing Memphis Center
09:46PM 36.7094 -88.9619 206° Southwest 178 205 10,300 1,080 Climbing Memphis Center
09:47PM 36.6639 -88.9886 205° Southwest 183 211 11,400 1,080 Climbing Memphis Center
09:48PM 36.6161 -89.0178 206° Southwest 183 211 12,500 1,020 Climbing Memphis Center
09:49PM 36.5706 -89.0469 207° Southwest 188 216 13,500 900 Climbing Memphis Center
09:50PM 36.5208 -89.0761 205° Southwest 188 216 14,400 900 Climbing Memphis Center
09:51PM 36.4711 -89.1053 205° Southwest 193 222 15,300 780 Climbing Memphis Center
09:52PM 36.4236 -89.1344 206° Southwest 193 222 16,000 660 Climbing Memphis Center
09:53PM 36.3781 -89.1608 205° Southwest 199 229 16,700 720 Climbing Memphis Center
09:54PM 36.3283 -89.1925 207° Southwest 199 229 17,500 600 Climbing Memphis Center
09:55PM 36.2764 -89.2242 206° Southwest 199 229 17,900 480 Climbing Memphis Center
09:56PM 36.2267 -89.2558 207° Southwest 199 229 18,500 540 Climbing Memphis Center
09:57PM 36.1769 -89.2872 207° Southwest 199 229 19,000 420 Climbing Memphis Center
09:58PM 36.1231 -89.3189 205° Southwest 199 229 19,400 420 Climbing Memphis Center
09:59PM 36.0711 -89.3503 206° Southwest 199 229 19,900 420 Climbing Memphis Center
10:00PM 36.0192 -89.3844 208° Southwest 199 229 20,300 420 Climbing Memphis Center
10:01PM 35.9672 -89.4131 204° Southwest 204 235 20,800 480 Climbing Memphis Center
10:02PM 35.9133 -89.4472 207° Southwest 210 242 21,300 480 Climbing Memphis Center
10:03PM 35.8594 -89.4786 205° Southwest 215 247 21,800 300 Climbing Memphis Center
10:04PM 35.8075 -89.5122 208° Southwest 215 247 22,000 60 Climbing Memphis Center
10:05PM 35.7494 -89.5461 205° Southwest 221 254 22,000  Level Memphis Center
10:06PM 35.6892 -89.5825 206° Southwest 232 267 22,000  Level Memphis Center
10:07PM 35.6247 -89.6239 208° Southwest 232 267 22,000  Level Memphis Center
10:08PM 35.5622 -89.6603 205° Southwest 247 284 22,000  Level Memphis Center
10:09PM 35.5000 -89.6964 205° Southwest 247 284 22,000 -180 Level Memphis Center
10:10PM 35.4417 -89.7328 207° Southwest 247 284 21,700 -720 Descending Memphis Center
10:11PM 35.3753 -89.7739 207° Southwest 254 292 20,600 -1,020 Descending Memphis Center
10:12PM 35.3044 -89.8125 204° Southwest 270 311 19,700 -900 Descending Memphis Center
10:13PM 35.2336 -89.8564 207° Southwest 284 327 18,900 -720 Descending Memphis Center
10:14PM 35.1650 -89.8972 206° Southwest 279 321 18,300 -420 Descending Memphis Center
10:15PM 35.1006 -89.9383 208° Southwest 279 321 18,100 -180 Descending Memphis Center
10:16PM 35.0339 -89.9742 204° Southwest 269 310 18,000  Descending Memphis Center
10:18PM 34.9256 -90.0658 215° Southwest 257 296 18,100  Climbing Memphis Center
10:19PM 34.8672 -90.1142 214° Southwest 257 296 18,100 -60 Level Memphis Center
10:20PM 34.8111 -90.1597 214° Southwest 257 296 18,000  Descending Memphis Center
10:21PM 34.7528 -90.2106 216° Southwest 257 296 18,100  Climbing Memphis Center
10:22PM 34.6986 -90.2561 215° Southwest 257 296 18,000  Descending Memphis Center
10:23PM 34.6400 -90.3042 214° Southwest 257 296 18,100  Climbing Memphis Center
10:24PM 34.5839 -90.3522 215° Southwest 257 296 18,100 -60 Level Memphis Center
10:25PM 34.5253 -90.3975 212° Southwest 257 296 18,000 -60 Descending Memphis Center
10:26PM 34.4711 -90.4453 216° Southwest 257 296 18,000  Level Memphis Center
10:27PM 34.4083 -90.4931 212° Southwest 257 296 18,000  Level Memphis Center
10:28PM 34.3519 -90.5433 216° Southwest 257 296 18,000  Level Memphis Center
10:29PM 34.2956 -90.5911 215° Southwest 257 296 18,000  Level Memphis Center
10:30PM 34.2392 -90.6386 215° Southwest 252 290 18,000  Level Memphis Center
10:31PM 34.1847 -90.6811 213° Southwest 252 290 18,000  Level Memphis Center
10:32PM 34.1264 -90.7311 215° Southwest 252 290 18,000  Level Memphis Center
10:33PM 34.0719 -90.7783 216° Southwest 252 290 18,000  Level Memphis Center
10:34PM 34.0133 -90.8208 211° Southwest 252 290 18,000  Level Memphis Center
10:35PM 33.9608 -90.8681 217° Southwest 252 290 18,000  Level Memphis Center
10:36PM 33.9064 -90.9153 216° Southwest 246 283 18,000  Level Memphis Center
10:37PM 33.8561 -90.9575 215° Southwest 246 283 18,000  Level Memphis Center
10:38PM 33.7975 -91.0022 212° Southwest 246 283 18,000  Level Memphis Center
10:39PM 33.7431 -91.0467 214° Southwest 246 283 18,000  Level Memphis Center
10:40PM 33.6781 -91.1011 215° Southwest 253 291 18,000  Level Memphis Center
10:41PM 33.6233 -91.1456 214° Southwest 247 284 18,000  Level Memphis Center
10:42PM 33.5667 -91.1900 213° Southwest 247 284 18,000  Level Memphis Center
10:43PM 33.5100 -91.2367 214° Southwest 242 278 18,000  Level Memphis Center
10:44PM 33.4575 -91.2811 215° Southwest 242 278 18,000  Level Memphis Center
10:45PM 33.4008 -91.3253 213° Southwest 242 278 18,000  Level Memphis Center
10:46PM 33.3464 -91.3694 214° Southwest 242 278 18,000  Level Memphis Center
10:47PM 33.3061 -91.4311 232° Southwest 242 278 18,000  Level Memphis Center
10:48PM 33.2931 -91.5081 259° West 234 269 18,000  Level Memphis Center
10:49PM 33.2756 -91.5847 255° West 234 269 18,000  Level Memphis Center
10:51PM 33.2569 -91.7078 260° West 241 277 18,000  Level Fort Worth Center
10:52PM 33.2417 -91.7858 257° West 241 277 18,000  Level Fort Worth Center
10:53PM 33.2203 -91.8642 252° West 246 283 18,000  Level Fort Worth Center
10:54PM 33.2086 -91.9367 259° West 246 283 18,000  Level Fort Worth Center
10:55PM 33.1872 -92.0150 252° West 251 289 18,000 -120 Level Fort Worth Center
10:56PM 33.1697 -92.0981 256° West 251 289 17,800 -540 Descending Fort Worth Center
10:57PM 33.1506 -92.1858 255° West 262 302 17,000 -900 Descending Fort Worth Center
10:58PM 33.1292 -92.2789 255° West 284 327 16,000 -1,020 Descending Fort Worth Center
10:59PM 33.1058 -92.3719 253° West 289 333 15,000 -1,020 Descending Fort Worth Center
11:00PM 33.0867 -92.4672 257° West 294 338 14,000 -900 Descending Fort Worth Center
11:01PM 33.0653 -92.5578 254° West 289 333 13,200 -480 Descending Fort Worth Center
11:02PM 33.0456 -92.6406 254° West 283 326 13,100 -60 Descending Fort Worth Center
11:03PM 33.0278 -92.7258 256° West 278 320 13,100 -240 Level Fort Worth Center
11:04PM 33.0019 -92.8164 251° West 255 293 12,700 -780 Descending Fort Worth Center
11:05PM 32.9672 -92.8922 241° Southwest 280 322 11,600 -1,200 Descending Fort Worth Center
11:06PM 32.9131 -92.9569 225° Southwest 278 320 10,300 -1,320 Descending Fort Worth Center
11:07PM 32.8589 -93.0189 224° Southwest 270 311 9,000 -1,380 Descending Fort Worth Center
11:08PM 32.8044 -93.0761 221° Southwest 260 299 7,600 -1,380 Descending Fort Worth Center
11:09PM 32.7583 -93.1253 222° Southwest 269 310 6,300 -1,260 Descending Fort Worth Center
11:10PM 32.7017 -93.1797 219° Southwest 263 303 5,100 -600 Descending Fort Worth Center
11:11PM 32.6494 -93.2414 225° Southwest 252 290 5,100  Level Fort Worth Center
11:12PM 32.6053 -93.2953 226° Southwest 237 273 5,100  Level Fort Worth Center
11:13PM 32.5633 -93.3489 227° Southwest 226 260 5,100  Level Fort Worth Center
11:14PM 32.5192 -93.4075 228° Southwest 223 257 5,100 -300 Level Fort Worth Center
11:15PM 32.4814 -93.4683 234° Southwest 232 267 4,600 -840 Descending Fort Worth Center
11:16PM 32.4458 -93.5289 235° Southwest 244 281 3,500 -1,080 Descending Fort Worth Center
11:17PM 32.4417 -93.5981 266° West 238 274 2,600 -720 Descending Fort Worth Center
11:18PM 32.4461 -93.6767 274° West 233 268 2,100 -240 Descending Fort Worth Center
11:19PM 32.4397 -93.7433 264° West 163 188 2,100 -240 Level Fort Worth Center
11:20PM 32.4264 -93.7881 251° West 130 150 1,700 -600 Descending Fort Worth Center
11:21PM 32.4294 -93.8272 275° West 124 143 1,000 -540 Descending Fort Worth Center
11:22PM 32.4128 -93.8206 161° South 126 145 700 -300 Descending Fort Worth Center